Currently 68°F in Temecula, California, USA
68°F
68°F / 49°F
6 mph SW
0.00"
Sunday, February 25, 2024 11:45 AM PST

Temecula, California Weather Summary
Last 36 Hours

Temperature Winds Hourly Humidity Dewpoint
Time Report Norm Report Norm Max Gusts Precip. Rpt. Norm Rpt. Norm Pressure
1,2Sun 11:45 AM  68.4°F  62°F  6 mph SW  5 mph  14 mph  0.00"  47%  55%  47°F  45°F  30.06"
Sun 11:00 AM  65.3°F  60°F  calm  4 mph  4 mph  0.00"  54%  61%  48°F  46°F  30.06"
Sun 10:00 AM  59.9°F  55°F  2 mph W  3 mph  4 mph  0.00"  66%  71%  48°F  46°F  30.07"
Sun 09:00 AM  54.8°F  50°F  calm  2 mph  4 mph  0.00"  78%  81%  48°F  45°F  30.07"
Sun 08:00 AM  51.2°F  46°F  calm  2 mph  4 mph  0.00"  86%  89%  47°F  43°F  30.07"
Sun 07:00 AM  49.3°F  44°F  2 mph E  1 mph  4 mph  0.00"  89%  91%  46°F  42°F  30.05"
3Sun 06:46 AM  49.2°F  44°F  calm  1 mph  none  ----  88%  91%  46°F  42°F  30.05"
Sun 06:00 AM  49.6°F  44°F  2 mph S  1 mph  2 mph  0.00"  87%  91%  46°F  42°F  30.02"
Sun 05:00 AM  50.0°F  45°F  calm  1 mph  none  0.00"  86%  90%  46°F  42°F  30.02"
Sun 04:00 AM  50.3°F  45°F  calm  2 mph  none  0.00"  85%  89%  46°F  42°F  30.03"
Sun 03:00 AM  50.9°F  46°F  calm  1 mph  3 mph  0.00"  84%  88%  46°F  42°F  30.03"
Sun 02:00 AM  51.1°F  47°F  calm  1 mph  1 mph  0.00"  83%  87%  46°F  43°F  30.03"
Sun 01:00 AM  52.4°F  48°F  calm  1 mph  2 mph  0.00"  80%  86%  46°F  43°F  30.05"
Sun 12:00 AM  52.8°F  49°F  calm  2 mph  1 mph  0.00"  78%  84%  46°F  44°F  30.05"
Sat 11:00 PM  54.5°F  50°F  calm  2 mph  none  0.00"  73%  82%  46°F  44°F  30.04"
Sat 10:00 PM  56.8°F  51°F  calm  2 mph  none  0.00"  70%  80%  47°F  45°F  30.04"
Sat 09:00 PM  59.4°F  52°F  calm  2 mph  6 mph  0.00"  57%  78%  44°F  45°F  30.05"
Sat 08:00 PM  61.9°F  53°F  4 mph S  3 mph  8 mph  0.00"  50%  75%  42°F  45°F  30.03"
Sat 07:00 PM  64.5°F  55°F  3 mph SW  3 mph  8 mph  0.00"  44%  71%  41°F  46°F  30.03"
Sat 06:00 PM  67.1°F  57°F  calm  4 mph  6 mph  0.00"  49%  67%  47°F  46°F  30.00"
Sat 05:00 PM  72.6°F  61°F  3 mph SW  6 mph  13 mph  0.00"  43%  60%  48°F  46°F  29.98"
Sat 04:00 PM  73.7°F  63°F  7 mph SW  7 mph  13 mph  0.00"  37%  55%  45°F  46°F  29.98"
Sat 03:00 PM  72.9°F  64°F  6 mph SW  7 mph  13 mph  0.00"  35%  52%  43°F  46°F  29.98"
Sat 02:00 PM  73.6°F  65°F  7 mph SW  7 mph  13 mph  0.00"  32%  50%  40°F  45°F  29.98"
Sat 01:00 PM  76.8°F  64°F  5 mph W  6 mph  10 mph  0.00"  29%  51%  41°F  45°F  29.99"
Sat 12:00 PM  70.3°F  62°F  3 mph W  5 mph  7 mph  0.00"  39%  55%  43°F  45°F  30.04"
Sat 11:00 AM  64.3°F  59°F  calm  4 mph  3 mph  0.00"  52%  62%  45°F  46°F  30.06"
Sat 10:00 AM  59.6°F  55°F  calm  3 mph  3 mph  0.00"  61%  72%  46°F  46°F  30.07"
Sat 09:00 AM  55.5°F  50°F  calm  2 mph  3 mph  0.00"  74%  82%  47°F  45°F  30.08"
Sat 08:00 AM  51.9°F  46°F  calm  2 mph  3 mph  0.00"  81%  89%  46°F  43°F  30.05"
Sat 07:00 AM  50.3°F  44°F  1 mph NE  1 mph  5 mph  0.00"  83%  91%  45°F  42°F  30.03"
Sat 06:00 AM  50.9°F  44°F  calm  2 mph  1 mph  0.00"  81%  91%  45°F  42°F  30.03"
Sat 05:00 AM  50.9°F  45°F  calm  1 mph  2 mph  0.00"  81%  90%  45°F  42°F  30.03"
Sat 04:00 AM  51.0°F  45°F  calm  2 mph  4 mph  0.00"  80%  89%  45°F  42°F  30.01"
Sat 03:00 AM  51.9°F  46°F  1 mph SE  1 mph  4 mph  0.00"  76%  89%  44°F  43°F  30.01"
Sat 02:00 AM  52.9°F  47°F  calm  2 mph  none  0.00"  72%  87%  44°F  43°F  30.03"
Sat 01:00 AM  53.5°F  48°F  calm  2 mph  2 mph  0.00"  70%  86%  44°F  44°F  30.05"
Sat 12:00 AM  54.0°F  49°F  calm  2 mph  2 mph  0.00"  69%  85%  44°F  44°F  30.06"

  1. Current weather data. No green row appears if the current weather data is also the high or low for the current day.
  2. High temperature for the current day.
  3. Low temperature for the current day.

The Temecula weather pages are a service of WeatherCurrents. Temecula, California is located in the Temecula Valley, in southwestern Riverside County, along the Interstate 15 highway. The Temecula Valley's rolling hills are home to the Temecula wine country, vineyards, golf courses, a casino resort, and Old Town Temecula.
Copyright ©2024  WeatherCurrents. All rights reserved. - Submit questions and comments - Privacy Policy

This page automatically refreshes every 10 minutes.